Last 30 Days

Alpine-Roundhouse Top 7880'

Daily Data | America/Los_Angeles
as of 3/29/20 1:26 PM PDT
Date Daily Max Temp (°F) Daily Min Temp (°F) Wind Spd (mph) Daily Max Wind (mph) Max RH (%) Min RH (%) Wet Bulb (°F) Bat Volt Min Day (V)
3/28/20 34.6 20.3 6.1 16.5 99 94 25.9 12.9
3/27/20 33.6 13.7 5.3 25.2 98 93 22.2 12.9
3/26/20 29.3 11.9 1.0 11.4 97 93 17.6 12.9
3/25/20 24.9 14.3 3.9 19.7 97 94 19.1 12.9
3/24/20 26.6 20.3 8.6 38.3 98 95 23.4 13.3
3/23/20 30.2 25.4 5.1 32.1 98 75 26.7 13.3
3/22/20 45.4 25.0 3.3 17.6 98 54 28.6 13.2
3/21/20 33.7 23.3 2.8 19.1 98 91 27.4 13.2
3/20/20 30.4 18.4 3.2 15.8 97 95 24.5 13.2
3/19/20 32.9 16.1 2.0 11.7 98 94 22.2 13.2
3/18/20 26.1 17.2 4.7 19.0 97 94 20.0 12.9
3/17/20 22.9 14.7 5.5 24.7 97 94 18.6 12.9
3/16/20 30.5 20.8 6.7 33.9 98 95 24.5 12.8
3/15/20 24.8 20.4 10.0 46.8 97 95 22.2 13.2
3/14/20 29.0 20.4 9.2 44.0 96 94 23.4 12.8
3/13/20 46.0 28.5 6.9 42.7 95 31 30.0 13.0
3/12/20 43.3 30.7 6.3 26.6 74 33 31.8 13.0
3/11/20 48.7 31.4 2.5 13.0 77 47 34.3 13.1
3/10/20 41.0 28.2 3.9 23.6 84 51 30.4 13.2
3/9/20 43.6 23.8 3.1 16.5 94 48 28.9 12.8
3/8/20 38.0 23.5 5.6 20.9 95 64 26.4 12.9
3/7/20 34.5 23.2 10.9 39.4 95 67 25.3 12.7
3/6/20 45.3 33.8 12.3 34.9 67 38 31.9 13.0
3/5/20 48.7 38.2 7.5 24.8 70 27 34.4 13.1
3/4/20 56.5 35.6 2.9 16.1 56 26 34.1 13.2
3/3/20 47.1 29.1 5.5 24.8 81 42 31.7 13.0
3/2/20 30.7 14.8 8.3 38.9 89 41 20.4 13.0
3/1/20 23.5 15.8 6.9 24.3 92 88 17.4 13.1
2/29/20 39.8 22.9 6.2 26.5 88 39 27.9 13.0
2/28/20 46.8 33.7 6.2 26.4 75 17 31.2 12.8
Max 56.5 38.2 12.3 46.8 99 95 34.4 13.3
Avg - - 5.7 - - - 26.1 -
Min 22.9 11.9 1.0 11.4 56 17 17.4 12.7